Time;durP1;ratioP1;P1;durP2;ratioP2;P2;SDS_P1;SDS_P2;PMS_P1;PMS_P2;Temp;Humidity;BMP_temperature;BMP_pressure;BME280_temperature;BME280_humidity;BME280_pressure;Samples;Min_cycle;Max_cycle;Signal;HPM_P1;HPM_P2
2021/12/04 00:00:41;;;;;;;14.43;3.37;;;4.40;69.50;;;;;;4987867;28;20861;-72
2021/12/04 00:03:07;;;;;;;3.77;2.87;;;4.40;69.80;;;;;;4970874;28;20509;-73
2021/12/04 00:05:33;;;;;;;5.23;3.20;;;4.40;70.10;;;;;;4966875;28;20431;-74
2021/12/04 00:07:59;;;;;;;6.10;3.30;;;4.40;69.70;;;;;;4967954;28;20960;-72
2021/12/04 00:10:30;;;;;;;4.40;2.43;;;4.30;70.20;;;;;;4960183;28;20575;-73
2021/12/04 00:12:56;;;;;;;6.57;3.10;;;4.30;70.40;;;;;;4960122;28;20543;-72
2021/12/04 00:15:22;;;;;;;3.67;2.50;;;4.40;70.40;;;;;;4957589;28;20455;-72
2021/12/04 00:17:48;;;;;;;5.53;3.00;;;4.40;70.40;;;;;;4972536;28;20455;-72
2021/12/04 00:20:14;;;;;;;7.53;2.97;;;4.50;70.20;;;;;;4988590;28;20431;-73
2021/12/04 00:22:40;;;;;;;9.93;3.73;;;4.50;70.20;;;;;;4963292;28;20270;-73
2021/12/04 00:25:07;;;;;;;4.30;2.83;;;4.50;70.40;;;;;;4976608;28;20434;-72
2021/12/04 00:27:34;;;;;;;6.30;3.20;;;4.50;70.50;;;;;;5026754;28;20443;-74
2021/12/04 00:30:00;;;;;;;3.70;2.70;;;4.50;70.40;;;;;;5008251;28;20453;-74
2021/12/04 00:35:08;;;;;;;5.20;2.93;;;4.50;70.70;;;;;;4960829;28;20957;-74
2021/12/04 00:37:51;;;;;;;3.17;2.63;;;4.50;71.00;;;;;;4957211;28;20436;-72
2021/12/04 00:51:33;;;;;;;7.40;2.93;;;4.40;72.00;;;;;;5040421;28;20474;-74
2021/12/04 00:53:59;;;;;;;4.30;2.97;;;4.40;72.00;;;;;;5043398;28;20463;-74
2021/12/04 00:56:25;;;;;;;8.63;3.10;;;4.50;72.30;;;;;;5038868;28;20426;-73
2021/12/04 00:58:51;;;;;;;5.00;3.20;;;4.50;72.00;;;;;;5031492;28;20666;-75
2021/12/04 01:01:19;;;;;;;5.20;3.43;;;4.50;72.30;;;;;;5040308;28;20518;-74
2021/12/04 01:03:46;;;;;;;4.78;3.03;;;4.60;72.60;;;;;;5040197;28;20429;-74
2021/12/04 01:06:12;;;;;;;3.40;2.97;;;4.60;72.60;;;;;;5029291;28;20547;-73
2021/12/04 01:08:38;;;;;;;5.03;3.07;;;4.60;72.90;;;;;;5043197;28;20446;-73
2021/12/04 01:11:04;;;;;;;5.47;3.67;;;4.50;73.20;;;;;;5030643;28;20462;-74
2021/12/04 01:13:31;;;;;;;5.10;2.83;;;4.50;73.70;;;;;;5032390;28;20443;-74
2021/12/04 01:15:57;;;;;;;5.80;4.17;;;4.50;74.00;;;;;;5025999;28;20439;-73
2021/12/04 01:18:23;;;;;;;7.00;3.57;;;4.60;74.50;;;;;;4963174;28;20466;-74
2021/12/04 01:20:48;;;;;;;5.73;3.10;;;4.50;74.50;;;;;;4958670;28;20450;-73
2021/12/04 01:23:16;;;;;;;6.73;3.27;;;4.50;75.70;;;;;;4958513;28;20188;-73
2021/12/04 01:25:43;;;;;;;8.10;3.60;;;4.50;76.50;;;;;;4957461;28;20211;-75
2021/12/04 01:28:09;;;;;;;4.67;3.20;;;4.60;77.40;;;;;;4964148;28;20525;-75
2021/12/04 01:30:35;;;;;;;5.30;3.30;;;4.60;79.30;;;;;;4959063;28;20474;-74
2021/12/04 01:33:01;;;;;;;13.33;3.40;;;4.60;80.60;;;;;;4966587;28;20210;-73
2021/12/04 01:35:27;;;;;;;5.30;3.50;;;4.50;81.70;;;;;;4952437;28;20428;-73
2021/12/04 01:37:53;;;;;;;7.40;3.43;;;4.40;83.00;;;;;;4965803;28;20485;-74
2021/12/04 01:40:19;;;;;;;4.60;3.23;;;4.30;83.70;;;;;;4960496;28;20427;-74
2021/12/04 01:42:45;;;;;;;6.30;3.50;;;4.30;85.00;;;;;;4962896;28;20466;-74
2021/12/04 01:45:12;;;;;;;6.23;3.57;;;4.20;86.30;;;;;;4971516;28;20329;-73
2021/12/04 01:47:38;;;;;;;4.20;3.23;;;4.10;88.60;;;;;;4960622;28;20455;-75
2021/12/04 01:50:06;;;;;;;9.60;3.67;;;3.90;91.50;;;;;;4965455;28;20916;-75
2021/12/04 01:52:32;;;;;;;8.38;3.80;;;3.70;93.00;;;;;;4968329;28;20641;-76
2021/12/04 01:54:58;;;;;;;6.60;3.40;;;3.60;93.90;;;;;;4961835;28;20192;-75
2021/12/04 01:57:24;;;;;;;7.43;3.30;;;3.50;94.50;;;;;;4967381;28;20222;-73
2021/12/04 01:59:50;;;;;;;4.25;3.20;;;3.50;95.10;;;;;;4962830;28;20186;-74
2021/12/04 02:02:17;;;;;;;6.10;3.25;;;3.50;95.30;;;;;;4965464;28;20210;-75
2021/12/04 02:04:43;;;;;;;6.25;3.20;;;3.40;95.50;;;;;;4959472;28;20192;-75
2021/12/04 02:07:10;;;;;;;7.25;3.88;;;3.50;95.80;;;;;;4962393;28;20214;-74
2021/12/04 02:09:36;;;;;;;6.70;3.50;;;3.40;95.90;;;;;;4965558;28;20208;-75
2021/12/04 02:12:05;;;;;;;5.90;3.15;;;3.40;96.00;;;;;;4962919;28;20207;-75
2021/12/04 02:14:32;;;;;;;11.95;4.22;;;3.30;96.20;;;;;;4963833;28;20192;-75
2021/12/04 02:16:59;;;;;;;5.32;3.50;;;3.30;96.30;;;;;;4961818;28;20199;-75
2021/12/04 02:19:25;;;;;;;6.83;3.97;;;3.20;96.30;;;;;;4966728;28;20584;-74
2021/12/04 02:21:51;;;;;;;6.90;4.00;;;3.30;96.50;;;;;;4968662;28;20430;-73
2021/12/04 02:24:16;;;;;;;5.23;3.23;;;3.40;96.60;;;;;;4960229;28;20192;-74
2021/12/04 02:26:43;;;;;;;5.60;4.03;;;3.30;96.50;;;;;;4965815;28;20218;-74
2021/12/04 02:29:09;;;;;;;7.88;3.35;;;3.30;96.60;;;;;;4962945;28;20212;-75
2021/12/04 02:31:35;;;;;;;7.07;3.55;;;3.40;96.80;;;;;;4990055;28;20217;-73
2021/12/04 02:34:00;;;;;;;9.27;5.87;;;3.40;96.90;;;;;;4962065;28;20187;-74
2021/12/04 02:36:27;;;;;;;7.37;4.60;;;3.50;96.90;;;;;;4964140;28;20288;-74
2021/12/04 02:38:52;;;;;;;10.33;4.10;;;3.50;96.90;;;;;;4958673;28;20186;-75
2021/12/04 02:41:20;;;;;;;7.90;3.93;;;3.50;96.80;;;;;;4963570;28;20791;-74
2021/12/04 02:43:46;;;;;;;5.22;3.33;;;3.50;96.70;;;;;;4955127;28;20194;-75
2021/12/04 02:46:14;;;;;;;7.25;4.32;;;3.50;96.60;;;;;;4962135;28;20179;-76
2021/12/04 02:48:45;;;;;;;8.35;3.75;;;3.60;96.50;;;;;;4961114;28;20299;-73
2021/12/04 02:51:11;;;;;;;7.38;4.18;;;3.60;96.20;;;;;;4963726;28;20191;-74
2021/12/04 02:53:38;;;;;;;7.63;4.47;;;3.60;96.10;;;;;;4954072;28;20192;-74
2021/12/04 02:56:05;;;;;;;6.57;4.28;;;3.50;95.90;;;;;;4964545;28;20176;-75
2021/12/04 02:58:33;;;;;;;9.35;4.45;;;3.50;95.90;;;;;;4960113;28;20632;-76
2021/12/04 03:01:00;;;;;;;9.77;4.45;;;3.50;95.80;;;;;;4963519;28;20756;-74
2021/12/04 03:03:27;;;;;;;9.70;4.90;;;3.50;95.80;;;;;;4962992;28;20196;-74
2021/12/04 03:05:53;;;;;;;8.43;4.70;;;3.60;95.70;;;;;;4965808;28;20445;-74
2021/12/04 03:08:19;;;;;;;9.23;4.55;;;3.60;95.60;;;;;;4959376;28;20463;-74
2021/12/04 03:10:47;;;;;;;8.97;5.27;;;3.60;95.40;;;;;;4981178;28;20204;-75
2021/12/04 03:13:15;;;;;;;11.90;4.93;;;3.60;95.40;;;;;;4965742;28;20462;-75
2021/12/04 03:15:44;;;;;;;8.25;5.15;;;3.60;95.40;;;;;;4970907;28;20214;-74
2021/12/04 03:18:10;;;;;;;9.73;5.35;;;3.60;95.30;;;;;;4966441;28;20215;-73
2021/12/04 03:20:44;;;;;;;7.97;4.20;;;3.60;95.40;;;;;;4964448;28;20191;-74
2021/12/04 03:23:17;;;;;;;9.93;4.77;;;3.60;95.40;;;;;;4966646;28;20188;-73
2021/12/04 03:25:46;;;;;;;8.05;4.93;;;3.60;95.50;;;;;;4966696;28;20911;-74
2021/12/04 03:28:15;;;;;;;7.63;4.30;;;3.60;95.60;;;;;;4965098;28;20203;-74
2021/12/04 03:30:52;;;;;;;10.02;4.70;;;3.60;95.70;;;;;;4971198;28;20214;-73
2021/12/04 03:41:17;;;;;;;11.27;5.30;;;3.70;95.80;;;;;;4968222;28;20195;-73
2021/12/04 03:43:43;;;;;;;9.48;4.63;;;3.80;95.90;;;;;;4972157;28;20515;-74
2021/12/04 03:46:14;;;;;;;7.28;4.50;;;3.80;95.80;;;;;;4975816;28;20337;-74
2021/12/04 03:51:09;;;;;;;10.10;4.60;;;3.80;95.50;;;;;;4975172;28;20222;-76
2021/12/04 03:53:35;;;;;;;7.57;3.50;;;3.90;95.60;;;;;;4994576;28;20430;-74
2021/12/04 03:56:03;;;;;;;6.95;4.07;;;3.90;95.60;;;;;;4967205;28;20916;-75
2021/12/04 03:58:28;;;;;;;6.93;4.22;;;3.90;95.50;;;;;;4977061;28;20207;-72
2021/12/04 04:00:54;;;;;;;9.70;5.40;;;3.90;95.60;;;;;;5012595;28;20201;-73
2021/12/04 04:03:20;;;;;;;13.38;5.90;;;3.90;95.60;;;;;;4974863;28;20215;-73
2021/12/04 04:05:47;;;;;;;7.37;4.93;;;3.90;95.60;;;;;;4977082;28;20188;-73
2021/12/04 04:08:14;;;;;;;9.98;5.40;;;3.80;95.60;;;;;;4967054;28;20515;-74
2021/12/04 04:10:41;;;;;;;10.63;6.00;;;3.80;95.80;;;;;;4996602;28;20794;-74
2021/12/04 04:13:11;;;;;;;11.93;6.40;;;3.90;95.90;;;;;;4966109;28;20466;-73
2021/12/04 04:15:37;;;;;;;15.43;6.50;;;3.90;96.00;;;;;;5018693;28;20433;-74
2021/12/04 04:18:04;;;;;;;9.80;5.87;;;3.90;96.20;;;;;;4963468;28;20644;-75
2021/12/04 04:20:31;;;;;;;12.27;6.78;;;3.90;96.30;;;;;;4972123;28;20423;-73
2021/12/04 04:22:57;;;;;;;13.43;7.00;;;3.90;96.40;;;;;;4961981;28;20184;-74
2021/12/04 04:25:23;;;;;;;12.10;7.07;;;3.90;96.50;;;;;;4976002;28;20908;-73
2021/12/04 04:27:49;;;;;;;11.93;6.87;;;3.90;96.60;;;;;;4991237;28;20442;-74
2021/12/04 04:30:17;;;;;;;11.13;6.40;;;3.90;96.60;;;;;;5002394;28;20418;-74
2021/12/04 04:32:44;;;;;;;10.27;6.50;;;4.00;96.60;;;;;;4979761;28;20682;-74
2021/12/04 04:35:20;;;;;;;12.23;6.70;;;4.00;96.60;;;;;;5062836;28;20418;-73
2021/12/04 04:57:23;;;;;;;10.95;6.38;;;3.90;96.20;;;;;;4969073;28;20435;-74
2021/12/04 05:13:17;;;;;;;10.97;6.33;;;4.10;97.30;;;;;;5019690;28;20638;-75
2021/12/04 05:21:27;;;;;;;13.67;6.77;;;4.20;97.10;;;;;;4967148;28;20575;-75
2021/12/04 05:23:43;;;;;;;11.00;6.53;;;4.20;97.30;;;;;;4974282;28;20424;-72
2021/12/04 05:26:14;;;;;;;11.60;5.90;;;4.20;97.20;;;;;;4961701;28;20424;-74
2021/12/04 05:28:40;;;;;;;11.43;5.90;;;4.30;97.30;;;;;;4967399;28;20447;-73
2021/12/04 05:31:06;;;;;;;9.85;5.57;;;4.30;97.30;;;;;;4961836;28;20813;-73
2021/12/04 05:33:32;;;;;;;8.50;5.40;;;4.40;97.50;;;;;;4955557;28;20235;-73
2021/12/04 05:35:57;;;;;;;8.23;4.93;;;4.40;97.60;;;;;;4964755;28;20179;-75
2021/12/04 05:38:24;;;;;;;6.73;4.60;;;4.40;97.60;;;;;;4959342;28;20215;-74
2021/12/04 05:40:50;;;;;;;9.87;5.80;;;4.50;97.50;;;;;;4970578;28;20880;-75
2021/12/04 05:43:21;;;;;;;11.80;6.70;;;4.50;97.50;;;;;;4970929;28;20797;-75
2021/12/04 05:45:52;;;;;;;13.07;7.50;;;4.40;97.50;;;;;;5003224;28;20437;-74
2021/12/04 05:53:40;;;;;;;13.07;7.40;;;4.50;97.40;;;;;;4971684;28;20526;-72
2021/12/04 05:56:06;;;;;;;16.10;7.47;;;4.50;97.30;;;;;;4966503;28;20237;-76
2021/12/04 05:58:33;;;;;;;12.77;7.20;;;4.40;97.10;;;;;;4964174;28;20807;-75
2021/12/04 06:01:02;;;;;;;13.07;8.33;;;4.40;97.10;;;;;;4970855;28;20789;-75
2021/12/04 06:03:28;;;;;;;15.47;8.47;;;4.40;97.10;;;;;;4960352;28;20439;-74
2021/12/04 06:05:54;;;;;;;17.97;8.67;;;4.40;97.10;;;;;;4976978;28;20426;-73
2021/12/04 06:08:19;;;;;;;12.77;6.80;;;4.50;97.20;;;;;;4962560;28;20216;-75
2021/12/04 06:10:46;;;;;;;17.53;8.30;;;4.50;97.30;;;;;;4965359;28;20493;-72
2021/12/04 06:13:13;;;;;;;15.03;7.90;;;4.50;97.30;;;;;;4961125;28;20896;-73
2021/12/04 06:15:40;;;;;;;16.17;8.02;;;4.50;97.30;;;;;;4964487;28;20431;-75
2021/12/04 06:18:08;;;;;;;13.30;7.03;;;4.50;97.30;;;;;;4960430;28;20248;-74
2021/12/04 06:23:19;;;;;;;13.17;6.97;;;4.50;97.30;;;;;;4965459;28;20508;-74
2021/12/04 06:25:45;;;;;;;12.00;6.83;;;4.50;97.40;;;;;;4959343;28;20848;-72
2021/12/04 06:28:11;;;;;;;9.03;4.70;;;4.50;97.40;;;;;;4958224;28;20537;-75
2021/12/04 06:30:38;;;;;;;5.43;3.90;;;4.50;97.60;;;;;;4960363;28;20828;-75
2021/12/04 06:33:07;;;;;;;8.40;4.80;;;4.50;97.70;;;;;;4956594;28;20352;-73
2021/12/04 06:35:36;;;;;;;13.03;7.43;;;4.50;97.90;;;;;;4958887;28;20424;-76
2021/12/04 06:38:02;;;;;;;14.30;7.50;;;4.60;98.10;;;;;;4961851;28;20451;-72
2021/12/04 06:40:29;;;;;;;17.00;6.87;;;4.70;98.10;;;;;;4955532;28;20515;-73
2021/12/04 06:42:59;;;;;;;7.93;4.40;;;4.70;98.10;;;;;;4963106;28;20433;-75
2021/12/04 06:45:28;;;;;;;3.53;2.00;;;4.70;98.10;;;;;;4950910;28;20824;-74
2021/12/04 06:48:00;;;;;;;3.53;1.50;;;4.80;98.30;;;;;;4960918;28;20442;-74
2021/12/04 06:53:12;;;;;;;4.20;2.10;;;4.90;98.80;;;;;;4954459;28;20468;-74
2021/12/04 06:55:41;;;;;;;2.20;1.70;;;5.00;98.90;;;;;;4961659;28;20431;-73
2021/12/04 06:58:06;;;;;;;6.73;2.93;;;5.10;99.00;;;;;;4960659;28;20438;-74
2021/12/04 07:00:34;;;;;;;6.83;3.50;;;5.10;98.90;;;;;;4959406;28;20485;-75
2021/12/04 07:03:00;;;;;;;7.33;4.13;;;5.10;98.70;;;;;;4957052;28;20191;-72
2021/12/04 07:05:25;;;;;;;17.60;6.97;;;5.10;98.60;;;;;;4957544;28;20438;-74
2021/12/04 07:07:51;;;;;;;10.23;6.37;;;5.00;98.10;;;;;;4965469;28;21043;-74
2021/12/04 07:10:17;;;;;;;8.80;5.27;;;4.90;97.90;;;;;;4957922;28;20219;-72
2021/12/04 07:12:43;;;;;;;11.40;5.50;;;4.90;97.80;;;;;;4963322;28;20226;-75
2021/12/04 07:15:10;;;;;;;9.87;5.47;;;4.90;97.90;;;;;;4960127;28;20198;-74
2021/12/04 07:17:36;;;;;;;8.70;5.40;;;4.90;98.00;;;;;;4962651;28;20446;-74
2021/12/04 07:20:07;;;;;;;12.00;6.40;;;5.00;98.20;;;;;;4958068;28;20427;-75
2021/12/04 07:22:34;;;;;;;10.30;5.73;;;5.00;98.20;;;;;;4963100;28;20434;-74
2021/12/04 07:25:01;;;;;;;8.90;4.83;;;5.00;98.30;;;;;;4956630;28;20431;-74
2021/12/04 07:27:30;;;;;;;11.10;5.70;;;5.10;98.30;;;;;;4965311;28;20453;-73
2021/12/04 07:29:56;;;;;;;10.90;5.33;;;5.10;98.40;;;;;;4993966;28;20426;-74
2021/12/04 07:32:22;;;;;;;9.00;5.40;;;5.10;98.50;;;;;;5017134;28;20465;-74
2021/12/04 07:34:47;;;;;;;10.10;5.57;;;5.10;98.50;;;;;;5025330;28;20462;-74
2021/12/04 07:37:14;;;;;;;12.87;5.00;;;5.20;98.60;;;;;;4977210;28;20446;-75
2021/12/04 07:39:39;;;;;;;12.83;5.93;;;5.30;98.70;;;;;;4981507;28;20521;-73
2021/12/04 07:42:05;;;;;;;11.90;5.90;;;5.30;98.70;;;;;;5004553;28;20433;-74
2021/12/04 07:44:31;;;;;;;8.00;4.20;;;5.40;98.70;;;;;;4968458;28;20191;-74
2021/12/04 07:46:57;;;;;;;6.40;4.33;;;5.40;98.60;;;;;;4962969;28;20448;-74
2021/12/04 07:49:23;;;;;;;9.10;4.37;;;5.40;98.40;;;;;;4960974;28;20510;-74
2021/12/04 07:51:50;;;;;;;12.77;5.00;;;5.40;98.40;;;;;;4980560;28;20572;-74
2021/12/04 07:54:17;;;;;;;7.57;4.47;;;5.40;98.50;;;;;;4977031;28;20525;-74
2021/12/04 07:56:43;;;;;;;6.73;3.33;;;5.40;98.50;;;;;;4970626;28;20451;-74
2021/12/04 07:59:09;;;;;;;9.77;5.07;;;5.50;98.60;;;;;;4963540;28;20477;-73
2021/12/04 08:01:35;;;;;;;7.33;4.53;;;5.50;98.40;;;;;;5016831;28;20422;-75
2021/12/04 08:04:02;;;;;;;7.03;4.27;;;5.60;98.50;;;;;;4974746;28;20435;-75
2021/12/04 08:06:27;;;;;;;7.20;3.83;;;5.60;98.50;;;;;;4967486;28;20438;-73
2021/12/04 08:08:58;;;;;;;8.60;4.10;;;5.60;98.50;;;;;;4986273;28;20790;-73
2021/12/04 08:11:24;;;;;;;5.17;3.37;;;5.70;98.60;;;;;;5052956;28;20245;-75
2021/12/04 08:13:50;;;;;;;4.27;2.13;;;5.80;98.70;;;;;;4972474;28;20422;-74
2021/12/04 08:16:16;;;;;;;2.23;1.50;;;5.80;98.70;;;;;;4961545;28;20427;-74
2021/12/04 08:18:42;;;;;;;1.50;1.00;;;5.90;98.80;;;;;;4970084;28;20208;-74
2021/12/04 08:21:08;;;;;;;6.23;1.40;;;5.90;98.80;;;;;;4980398;28;20245;-74
2021/12/04 08:23:33;;;;;;;1.93;1.20;;;5.90;98.90;;;;;;4962125;28;20188;-75
2021/12/04 08:25:59;;;;;;;2.43;1.13;;;6.10;99.00;;;;;;4964576;28;20436;-74
2021/12/04 08:28:25;;;;;;;1.70;1.07;;;6.10;99.00;;;;;;4959093;28;20204;-74
2021/12/04 08:30:51;;;;;;;1.43;0.90;;;6.10;99.00;;;;;;4963385;28;20239;-74
2021/12/04 08:33:17;;;;;;;1.20;0.83;;;6.20;98.80;;;;;;4961931;28;20583;-73
2021/12/04 08:35:43;;;;;;;2.10;1.00;;;6.20;98.80;;;;;;4967526;28;20184;-73
2021/12/04 08:38:13;;;;;;;2.33;1.40;;;6.30;98.80;;;;;;4966713;28;20446;-75
2021/12/04 08:40:41;;;;;;;3.20;1.00;;;6.30;98.40;;;;;;4994483;28;20428;-74
2021/12/04 08:43:08;;;;;;;1.20;1.03;;;6.40;98.30;;;;;;4959535;28;20454;-76
2021/12/04 08:45:34;;;;;;;1.33;1.03;;;6.50;98.20;;;;;;4961417;28;20431;-73
2021/12/04 08:47:59;;;;;;;2.70;1.00;;;6.70;98.10;;;;;;4964304;28;20530;-75
2021/12/04 08:50:28;;;;;;;1.03;1.00;;;6.70;97.90;;;;;;4967780;28;20450;-75
2021/12/04 08:52:55;;;;;;;3.77;1.53;;;6.70;97.70;;;;;;4959048;28;20199;-74
2021/12/04 08:55:21;;;;;;;2.50;1.20;;;6.70;97.50;;;;;;4963726;28;20424;-74
2021/12/04 08:57:47;;;;;;;2.50;1.20;;;6.80;97.50;;;;;;4964710;28;20790;-75
2021/12/04 09:00:19;;;;;;;1.73;1.20;;;6.80;97.30;;;;;;4965619;28;20794;-75
2021/12/04 09:02:45;;;;;;;2.60;1.10;;;6.80;97.30;;;;;;4963342;28;20477;-77
2021/12/04 09:05:13;;;;;;;2.80;1.20;;;6.90;97.20;;;;;;4962288;28;20439;-76
2021/12/04 09:07:39;;;;;;;1.40;0.80;;;6.90;97.00;;;;;;4966346;28;20461;-75
2021/12/04 09:10:06;;;;;;;1.07;0.83;;;6.90;96.80;;;;;;4962804;28;20439;-75
2021/12/04 09:12:33;;;;;;;1.20;1.10;;;6.90;96.80;;;;;;4996257;28;20458;-76
2021/12/04 09:15:03;;;;;;;3.07;1.50;;;6.90;96.80;;;;;;4961169;28;20510;-75
2021/12/04 09:17:29;;;;;;;3.00;1.03;;;7.00;96.90;;;;;;4982254;28;20501;-76
2021/12/04 09:19:55;;;;;;;1.77;1.20;;;7.10;97.00;;;;;;4987436;28;20411;-76
2021/12/04 09:22:29;;;;;;;2.60;1.37;;;7.30;96.90;;;;;;4970686;28;20938;-75
2021/12/04 09:24:58;;;;;;;1.53;1.00;;;7.30;96.50;;;;;;4966148;28;20186;-76
2021/12/04 09:27:42;;;;;;;1.97;1.20;;;7.30;96.30;;;;;;4965787;28;20446;-76
2021/12/04 10:03:35;;;;;;;1.47;1.37;;;7.80;96.10;;;;;;4969116;28;20541;-75
2021/12/04 10:33:48;;;;;;;1.30;0.97;;;8.50;95.80;;;;;;5050835;28;20485;-74
2021/12/04 10:36:35;;;;;;;1.43;1.00;;;8.60;95.70;;;;;;5044216;28;20434;-74
2021/12/04 10:39:04;;;;;;;1.53;1.10;;;8.70;95.60;;;;;;5047421;28;20423;-74
2021/12/04 10:41:45;;;;;;;1.57;0.90;;;8.70;95.60;;;;;;5025553;28;20872;-75
2021/12/04 10:44:23;;;;;;;1.50;1.20;;;8.70;95.50;;;;;;4958978;28;20550;-74
2021/12/04 10:46:53;;;;;;;1.93;1.37;;;8.80;95.60;;;;;;4964185;28;20447;-74
2021/12/04 10:49:54;;;;;;;1.90;1.30;;;8.90;95.60;;;;;;4987557;28;20488;-75
2021/12/04 10:55:33;;;;;;;1.40;1.33;;;9.00;95.40;;;;;;4960405;28;20423;-74
2021/12/04 11:26:43;;;;;;;3.20;1.67;;;9.60;94.40;;;;;;5005164;28;20413;-75
2021/12/04 11:40:28;;;;;;;1.70;1.30;;;9.90;94.00;;;;;;4980656;28;20441;-74
2021/12/04 11:43:02;;;;;;;1.60;1.10;;;9.90;93.80;;;;;;4959440;28;20453;-76
2021/12/04 11:45:44;;;;;;;1.30;1.03;;;9.90;93.90;;;;;;4962763;28;20829;-74
2021/12/04 11:48:10;;;;;;;1.40;1.10;;;9.90;94.00;;;;;;4969104;28;20463;-73
2021/12/04 11:50:42;;;;;;;2.17;1.20;;;9.90;93.80;;;;;;4972056;28;20430;-75
2021/12/04 11:53:17;;;;;;;0.70;0.70;;;9.90;93.80;;;;;;4970974;28;20459;-75
2021/12/04 11:55:46;;;;;;;1.33;0.90;;;9.90;93.80;;;;;;4972023;28;20433;-76
2021/12/04 11:58:23;;;;;;;1.17;0.97;;;9.90;93.50;;;;;;4971064;28;20943;-73
2021/12/04 12:00:54;;;;;;;1.93;1.03;;;10.00;93.20;;;;;;4971241;28;20422;-75
2021/12/04 12:03:23;;;;;;;1.67;1.10;;;10.00;93.10;;;;;;4966808;28;20515;-74
2021/12/04 12:05:52;;;;;;;1.40;0.93;;;10.10;93.00;;;;;;4968697;28;20549;-73
2021/12/04 12:08:37;;;;;;;2.47;1.33;;;10.10;92.70;;;;;;4972310;28;20447;-74
2021/12/04 12:11:09;;;;;;;1.20;0.90;;;10.20;92.40;;;;;;4962705;28;20550;-73
2021/12/04 12:13:41;;;;;;;0.90;0.80;;;10.20;92.30;;;;;;4961427;28;20481;-74
2021/12/04 12:16:14;;;;;;;2.53;1.70;;;10.20;92.00;;;;;;4965873;28;20769;-75
2021/12/04 12:18:51;;;;;;;1.20;0.90;;;10.20;92.00;;;;;;4970257;28;20435;-73
2021/12/04 12:21:21;;;;;;;1.73;1.17;;;10.20;92.00;;;;;;4961165;28;20423;-74
2021/12/04 12:36:03;;;;;;;1.20;0.90;;;10.10;92.90;;;;;;4959642;28;20481;-75
2021/12/04 12:38:29;;;;;;;4.93;0.90;;;10.20;93.10;;;;;;4964461;28;20446;-75
2021/12/04 12:41:00;;;;;;;0.90;0.90;;;10.10;93.10;;;;;;4963973;28;20894;-75
2021/12/04 12:43:39;;;;;;;6.77;1.27;;;10.10;93.20;;;;;;4971256;28;20190;-75
2021/12/04 12:46:05;;;;;;;1.00;0.93;;;10.20;93.20;;;;;;4975327;28;20846;-75
2021/12/04 12:48:46;;;;;;;2.40;1.30;;;10.20;93.30;;;;;;4963577;28;20496;-75
2021/12/04 12:51:12;;;;;;;1.60;0.90;;;10.10;93.40;;;;;;4974389;28;20423;-75
2021/12/04 12:53:45;;;;;;;1.90;1.10;;;10.10;93.60;;;;;;4985471;28;20470;-75
2021/12/04 12:56:14;;;;;;;1.77;1.30;;;10.10;93.70;;;;;;4998883;28;20579;-74
2021/12/04 12:58:53;;;;;;;2.37;1.13;;;10.10;93.70;;;;;;4968473;28;20526;-76
2021/12/04 13:12:49;;;;;;;1.50;1.00;;;10.00;94.00;;;;;;4969475;28;21042;-74
2021/12/04 13:15:37;;;;;;;2.00;1.50;;;10.00;94.00;;;;;;4966527;28;20889;-74
2021/12/04 13:18:12;;;;;;;1.20;1.00;;;10.00;94.00;;;;;;4961243;28;20525;-73
2021/12/04 13:20:38;;;;;;;3.20;1.43;;;9.90;94.40;;;;;;4967802;28;20446;-74
2021/12/04 13:23:19;;;;;;;2.43;1.20;;;9.80;94.70;;;;;;4988910;28;20426;-74
2021/12/04 13:26:06;;;;;;;1.93;1.20;;;9.80;94.90;;;;;;4967355;28;20445;-74
2021/12/04 13:28:35;;;;;;;2.87;1.67;;;9.70;94.80;;;;;;4977522;28;20496;-74
2021/12/04 13:31:01;;;;;;;2.83;1.17;;;9.80;94.80;;;;;;4961882;28;20933;-73
2021/12/04 13:33:33;;;;;;;1.90;1.40;;;9.80;94.50;;;;;;4969689;28;20510;-73
2021/12/04 13:35:59;;;;;;;1.60;1.30;;;9.80;94.30;;;;;;4959675;28;20442;-75
2021/12/04 13:38:27;;;;;;;2.83;1.30;;;9.80;94.40;;;;;;4962817;28;20482;-73
2021/12/04 13:40:54;;;;;;;3.07;1.20;;;9.80;94.70;;;;;;4958482;28;20423;-74
2021/12/04 13:43:24;;;;;;;2.60;1.20;;;9.80;94.70;;;;;;4969469;28;20430;-75
2021/12/04 13:46:02;;;;;;;1.60;1.20;;;9.80;94.80;;;;;;4969315;28;20797;-76
2021/12/04 13:48:30;;;;;;;4.40;1.20;;;9.80;94.80;;;;;;4961264;28;20465;-73
2021/12/04 13:50:57;;;;;;;3.10;1.20;;;9.80;94.70;;;;;;4973357;28;20913;-75
2021/12/04 13:53:32;;;;;;;1.63;1.20;;;9.80;94.70;;;;;;5026828;28;20934;-74
2021/12/04 13:56:15;;;;;;;2.30;1.23;;;9.80;94.70;;;;;;4962174;28;20422;-75
2021/12/04 13:58:52;;;;;;;1.57;1.03;;;9.70;94.80;;;;;;4980089;28;20763;-74
2021/12/04 14:01:19;;;;;;;2.07;1.57;;;9.70;94.80;;;;;;4991224;28;20430;-74
2021/12/04 14:03:47;;;;;;;2.63;1.33;;;9.70;95.10;;;;;;4967912;28;20447;-76
2021/12/04 14:06:18;;;;;;;3.03;1.40;;;9.60;95.70;;;;;;4966285;28;20470;-75
2021/12/04 14:09:03;;;;;;;1.80;1.17;;;9.40;96.40;;;;;;4968269;28;20450;-75
2021/12/04 14:11:39;;;;;;;3.37;1.43;;;9.30;96.90;;;;;;4959925;28;20459;-75
2021/12/04 14:14:17;;;;;;;3.10;1.67;;;9.30;97.40;;;;;;4968914;28;20422;-75
2021/12/04 14:16:46;;;;;;;2.10;1.43;;;9.20;97.70;;;;;;4961184;28;20463;-75
2021/12/04 14:19:17;;;;;;;3.20;1.60;;;9.20;97.80;;;;;;4963019;28;20499;-75
2021/12/04 14:21:56;;;;;;;2.80;1.80;;;9.20;97.90;;;;;;5004718;28;20415;-77
2021/12/04 14:24:49;;;;;;;2.60;1.80;;;9.10;98.10;;;;;;4964578;28;20438;-75
2021/12/04 14:27:21;;;;;;;2.37;1.50;;;9.10;98.30;;;;;;4968058;28;20840;-75
2021/12/04 14:29:54;;;;;;;3.10;1.80;;;9.10;98.40;;;;;;4960573;28;20477;-76
2021/12/04 14:32:28;;;;;;;3.50;2.27;;;9.10;98.40;;;;;;4967648;28;20470;-76
2021/12/04 14:34:56;;;;;;;2.67;2.33;;;9.00;98.40;;;;;;4967376;28;20861;-74
2021/12/04 14:37:22;;;;;;;2.53;2.00;;;9.10;98.30;;;;;;4957921;28;20492;-75
2021/12/04 14:39:49;;;;;;;5.40;2.40;;;9.10;98.30;;;;;;4967778;28;20429;-75
2021/12/04 14:42:20;;;;;;;2.30;2.10;;;9.10;98.20;;;;;;4963176;28;20428;-75
2021/12/04 14:44:55;;;;;;;3.03;1.77;;;9.00;98.30;;;;;;5034807;28;20509;-75
2021/12/04 14:47:22;;;;;;;2.13;1.90;;;9.00;98.30;;;;;;4969660;28;20489;-75
2021/12/04 14:49:51;;;;;;;2.50;1.73;;;9.10;98.20;;;;;;4980884;28;20445;-76
2021/12/04 14:52:24;;;;;;;2.80;1.60;;;9.10;98.10;;;;;;5050715;28;20461;-74
2021/12/04 14:54:51;;;;;;;2.40;1.33;;;9.10;98.00;;;;;;5042434;28;20434;-75
2021/12/04 14:57:21;;;;;;;2.97;1.87;;;9.10;97.90;;;;;;4958957;28;20528;-75
2021/12/04 14:59:58;;;;;;;7.90;3.00;;;9.10;97.70;;;;;;5006016;28;20500;-74
2021/12/04 15:02:24;;;;;;;2.27;1.90;;;9.10;97.70;;;;;;4969347;28;20430;-75
2021/12/04 15:04:49;;;;;;;3.10;1.40;;;9.10;97.70;;;;;;4998492;28;20941;-75
2021/12/04 15:07:27;;;;;;;2.50;1.83;;;9.00;97.70;;;;;;4962155;28;20312;-75
2021/12/04 15:09:53;;;;;;;2.33;2.07;;;9.10;97.90;;;;;;4970451;28;20229;-75
2021/12/04 15:12:34;;;;;;;1.50;1.40;;;9.00;97.80;;;;;;4972958;28;20891;-74
2021/12/04 15:15:04;;;;;;;2.53;2.00;;;9.00;98.00;;;;;;4965424;28;20418;-74
2021/12/04 15:17:30;;;;;;;3.23;1.83;;;9.00;98.10;;;;;;4966817;28;20443;-74
2021/12/04 15:20:18;;;;;;;2.90;1.37;;;9.00;98.20;;;;;;4967214;28;20415;-75
2021/12/04 15:22:46;;;;;;;2.37;1.50;;;9.00;98.20;;;;;;4963542;28;20894;-74
2021/12/04 15:25:19;;;;;;;2.87;1.90;;;9.00;98.20;;;;;;4968458;28;20449;-75
2021/12/04 15:27:45;;;;;;;2.10;1.57;;;9.00;98.00;;;;;;4969298;28;21187;-75
2021/12/04 15:30:17;;;;;;;3.23;2.17;;;9.00;98.00;;;;;;4964163;28;20763;-74
2021/12/04 15:32:44;;;;;;;2.90;1.90;;;8.90;97.90;;;;;;4969063;28;21146;-74
2021/12/04 15:35:32;;;;;;;3.73;2.23;;;9.00;98.00;;;;;;4972580;28;20727;-74
2021/12/04 15:38:04;;;;;;;2.33;1.73;;;9.00;98.00;;;;;;4964126;28;20438;-75
2021/12/04 15:41:29;;;;;;;2.40;1.80;;;9.00;97.90;;;;;;4958699;28;20450;-74
2021/12/04 15:43:57;;;;;;;3.20;2.10;;;9.00;97.70;;;;;;5008259;28;20431;-76
2021/12/04 15:46:38;;;;;;;6.43;1.60;;;9.10;97.40;;;;;;4958839;28;20841;-75
2021/12/04 15:54:26;;;;;;;5.23;2.43;;;9.20;96.80;;;;;;4965957;28;20418;-73
2021/12/04 15:56:54;;;;;;;3.40;2.10;;;9.20;96.60;;;;;;4967435;28;20568;-74
2021/12/04 15:59:28;;;;;;;2.70;2.03;;;9.30;96.50;;;;;;4983029;28;20423;-74
2021/12/04 16:01:57;;;;;;;2.03;1.90;;;9.20;96.30;;;;;;4971395;28;20418;-73
2021/12/04 16:04:31;;;;;;;1.90;1.43;;;9.30;96.30;;;;;;4967413;28;20468;-73
2021/12/04 16:07:00;;;;;;;4.37;2.30;;;9.30;96.10;;;;;;4964762;28;20439;-74
2021/12/04 16:09:28;;;;;;;2.80;1.87;;;9.30;95.80;;;;;;4978412;28;20481;-74
2021/12/04 16:12:07;;;;;;;2.97;1.83;;;9.30;95.70;;;;;;4965951;28;20445;-75
2021/12/04 16:14:37;;;;;;;2.60;1.77;;;9.30;95.20;;;;;;4969932;28;20434;-74
2021/12/04 16:17:05;;;;;;;4.33;2.33;;;9.30;94.90;;;;;;4974209;28;20453;-73
2021/12/04 16:19:33;;;;;;;9.13;2.60;;;9.40;94.80;;;;;;4978811;28;20423;-73
2021/12/04 16:22:02;;;;;;;3.43;2.10;;;9.40;94.80;;;;;;4989631;28;20446;-75
2021/12/04 16:24:30;;;;;;;2.93;2.20;;;9.40;94.70;;;;;;5007422;28;20464;-74
2021/12/04 16:27:14;;;;;;;3.50;2.03;;;9.40;94.00;;;;;;4989465;28;20449;-73
2021/12/04 16:29:50;;;;;;;1.90;1.60;;;9.40;93.90;;;;;;5000526;28;20542;-74
2021/12/04 16:32:52;;;;;;;3.50;2.10;;;9.40;93.90;;;;;;4995248;28;20903;-73